Leersum, Netherlands
Current Conditions -  °F | °C
As of 5:25 PM on Friday 21 Nov 2014 (Local Time) from EHDL Reporting Station
Few Clouds Few Clouds  
Wind Chill: 39°   Ceiling: Unl
Heat Index: 43°   Visibility: 6mi
Dew Point: 37°   Wind: 7mph
Humidity: 81%   Direction: 100°E
Pressure: 30.12"   Gusts: NA
Location:  52.01°N, 5.43°E
Report Text: EHDL 211625Z AUTO 10006KT 9999 FEW120 06/03 Q1020 BLU
Loading
Personal Weather Stations






























Interactive Weather Map New forecast layout! Learn more

10-Day Weather Forecast

Advertisements
Track Severe Weather on mobile